Time;durP1;ratioP1;P1;durP2;ratioP2;P2;SDS_P1;SDS_P2;PMS_P1;PMS_P2;Temp;Humidity;BMP_temperature;BMP_pressure;BME280_temperature;BME280_humidity;BME280_pressure;Samples;Min_cycle;Max_cycle;Signal;HPM_P1;HPM_P2
2022/08/15 00:01:25;;;;;;;11.30;7.68;;;20.90;99.90;;;;;;5054688;28;20142;-80
2022/08/15 00:03:54;;;;;;;12.50;8.82;;;20.90;99.90;;;;;;5054410;28;20052;-79
2022/08/15 00:06:26;;;;;;;9.65;8.05;;;20.90;99.90;;;;;;5038444;28;20041;-78
2022/08/15 00:08:55;;;;;;;10.82;8.13;;;20.90;99.90;;;;;;5036942;28;20040;-79
2022/08/15 00:11:31;;;;;;;13.57;8.55;;;21.00;99.90;;;;;;5038630;28;20032;-80
2022/08/15 00:14:10;;;;;;;10.00;7.72;;;21.00;99.90;;;;;;5054782;28;20037;-78
2022/08/15 00:16:38;;;;;;;11.82;7.97;;;21.00;99.90;;;;;;5054879;28;20044;-78
2022/08/15 00:19:13;;;;;;;11.32;8.48;;;20.90;99.90;;;;;;5070469;28;20589;-78
2022/08/15 00:21:43;;;;;;;11.90;8.45;;;21.00;99.90;;;;;;5053035;28;20403;-78
2022/08/15 00:24:15;;;;;;;10.10;7.72;;;21.00;99.90;;;;;;5056842;28;20336;-78
2022/08/15 00:26:42;;;;;;;;;;;21.00;99.90;;;;;;5056867;28;20052;-78
2022/08/15 00:29:08;;;;;;;9.85;7.82;;;21.00;99.90;;;;;;5056459;28;19985;-78
2022/08/15 00:31:35;;;;;;;10.25;7.68;;;21.00;99.90;;;;;;5056429;28;20055;-78
2022/08/15 00:34:02;;;;;;;11.98;8.07;;;21.00;99.90;;;;;;5056335;28;20488;-78
2022/08/15 00:36:30;;;;;;;12.65;7.88;;;21.10;99.90;;;;;;5056488;28;20051;-78
2022/08/15 00:38:57;;;;;;;10.30;7.82;;;21.10;99.90;;;;;;5056252;28;20411;-78
2022/08/15 00:41:42;;;;;;;10.90;7.30;;;21.10;99.90;;;;;;5055959;28;20045;-78
2022/08/15 00:44:30;;;;;;;10.38;8.00;;;21.10;99.90;;;;;;5056463;28;20395;-78
2022/08/15 00:47:03;;;;;;;13.15;8.57;;;21.00;99.90;;;;;;5056594;28;20551;-78
2022/08/15 00:49:32;;;;;;;12.35;9.27;;;21.00;99.90;;;;;;5039610;28;20040;-78
2022/08/15 00:52:20;;;;;;;11.55;8.73;;;20.90;99.90;;;;;;5056026;28;20134;-78
2022/08/15 00:55:00;;;;;;;12.63;9.52;;;21.00;99.90;;;;;;5055992;28;20044;-78
2022/08/15 00:57:30;;;;;;;14.38;9.10;;;20.90;99.90;;;;;;5056196;28;20079;-78
2022/08/15 01:00:00;;;;;;;13.48;9.15;;;21.00;99.90;;;;;;5055695;28;20051;-78
2022/08/15 01:02:30;;;;;;;12.27;9.27;;;21.10;99.90;;;;;;5055804;28;20548;-78
2022/08/15 01:04:57;;;;;;;11.85;8.70;;;21.10;99.90;;;;;;5068186;28;20025;-77
2022/08/15 01:07:23;;;;;;;9.80;7.93;;;21.20;99.90;;;;;;5073102;28;20037;-77
2022/08/15 01:09:50;;;;;;;10.77;8.50;;;21.10;99.90;;;;;;5072575;28;20352;-78
2022/08/15 01:12:25;;;;;;;13.00;9.13;;;21.20;99.90;;;;;;5055881;28;20131;-78
2022/08/15 01:14:55;;;;;;;10.50;8.07;;;21.20;99.90;;;;;;5039269;28;20719;-79
2022/08/15 01:17:22;;;;;;;12.27;8.40;;;21.30;99.90;;;;;;5055634;28;20083;-78
2022/08/15 01:20:04;;;;;;;13.18;9.27;;;21.20;99.90;;;;;;5055350;28;20040;-78
2022/08/15 01:22:52;;;;;;;13.77;8.95;;;21.20;99.90;;;;;;5055755;28;20039;-78
2022/08/15 01:25:23;;;;;;;12.27;8.02;;;21.30;99.90;;;;;;5055787;28;20059;-78
2022/08/15 01:28:06;;;;;;;13.52;8.80;;;21.30;99.90;;;;;;5039102;28;20049;-78
2022/08/15 01:30:40;;;;;;;13.00;8.20;;;21.30;99.90;;;;;;5055119;28;20055;-78
2022/08/15 01:33:07;;;;;;;12.30;8.65;;;21.30;99.90;;;;;;5054730;28;20044;-78
2022/08/15 01:35:34;;;;;;;9.57;8.30;;;21.30;99.90;;;;;;5055465;28;20103;-78
2022/08/15 01:38:01;;;;;;;12.70;8.32;;;21.30;99.90;;;;;;5055226;28;20117;-78
2022/08/15 01:40:58;;;;;;;10.80;8.50;;;21.30;99.90;;;;;;5054815;28;20131;-78
2022/08/15 01:43:26;;;;;;;11.10;7.70;;;21.30;99.90;;;;;;5056203;28;20048;-77
2022/08/15 01:45:55;;;;;;;9.43;7.88;;;21.30;99.90;;;;;;5038935;28;20033;-79
2022/08/15 01:48:26;;;;;;;10.25;8.52;;;21.30;99.90;;;;;;5055178;28;20032;-79
2022/08/15 01:50:55;;;;;;;10.43;8.27;;;21.30;99.90;;;;;;5054909;28;20050;-79
2022/08/15 01:53:24;;;;;;;11.35;8.30;;;21.30;99.90;;;;;;5038666;28;20070;-78
2022/08/15 01:55:59;;;;;;;11.68;8.50;;;21.20;99.90;;;;;;5038992;28;20087;-78
2022/08/15 01:58:25;;;;;;;10.25;8.20;;;21.20;99.90;;;;;;5055284;28;20110;-78
2022/08/15 02:00:52;;;;;;;12.43;8.63;;;21.10;99.90;;;;;;5054900;28;20495;-78
2022/08/15 02:03:18;;;;;;;10.48;8.43;;;21.10;99.90;;;;;;5038168;28;20442;-78
2022/08/15 02:05:44;;;;;;;10.27;8.68;;;21.10;99.90;;;;;;5038099;28;20047;-78
2022/08/15 02:08:09;;;;;;;11.30;8.07;;;21.10;99.90;;;;;;5054623;28;20090;-78
2022/08/15 02:10:35;;;;;;;14.63;8.60;;;21.10;99.90;;;;;;5037744;28;20048;-78
2022/08/15 02:13:01;;;;;;;11.18;8.73;;;21.00;99.90;;;;;;5054591;28;20070;-78
2022/08/15 02:15:26;;;;;;;13.07;9.27;;;21.00;99.90;;;;;;5037927;28;20052;-79
2022/08/15 02:17:52;;;;;;;11.13;8.45;;;21.00;99.90;;;;;;5054408;28;20127;-78
2022/08/15 02:20:18;;;;;;;15.07;9.35;;;20.90;99.90;;;;;;5037780;28;20551;-78
2022/08/15 02:22:44;;;;;;;13.68;8.63;;;20.90;99.90;;;;;;5037578;28;20463;-78
2022/08/15 02:25:11;;;;;;;10.82;9.18;;;20.90;99.90;;;;;;5037668;28;20067;-78
2022/08/15 02:27:38;;;;;;;11.40;8.38;;;20.80;99.90;;;;;;5072278;28;20040;-78
2022/08/15 02:30:12;;;;;;;14.77;8.15;;;20.80;99.90;;;;;;5071899;28;20068;-78
2022/08/15 02:32:39;;;;;;;11.90;8.70;;;20.80;99.90;;;;;;5054352;28;20052;-78
2022/08/15 02:35:06;;;;;;;11.85;8.02;;;20.80;99.90;;;;;;5071956;28;20043;-78
2022/08/15 02:37:32;;;;;;;12.15;8.35;;;20.80;99.90;;;;;;5054038;28;20123;-78
2022/08/15 02:39:58;;;;;;;12.90;8.30;;;20.70;99.90;;;;;;5071950;28;20516;-78
2022/08/15 02:42:24;;;;;;;10.98;8.70;;;20.70;99.90;;;;;;5071821;28;20131;-78
2022/08/15 02:44:50;;;;;;;11.02;8.10;;;20.70;99.90;;;;;;5053627;28;20169;-78
2022/08/15 02:47:18;;;;;;;12.82;8.15;;;20.70;99.90;;;;;;5053943;28;20048;-78
2022/08/15 02:49:45;;;;;;;10.63;8.35;;;20.70;99.90;;;;;;5053424;28;20071;-78
2022/08/15 02:52:12;;;;;;;13.90;9.07;;;20.60;99.90;;;;;;5053785;28;20121;-78
2022/08/15 02:54:39;;;;;;;10.70;8.95;;;20.60;99.90;;;;;;5054157;28;20045;-78
2022/08/15 02:57:06;;;;;;;11.45;8.48;;;20.60;99.90;;;;;;5053722;28;20044;-78
2022/08/15 02:59:32;;;;;;;11.95;8.63;;;20.50;99.90;;;;;;5053691;28;20079;-78
2022/08/15 03:01:59;;;;;;;12.98;8.45;;;20.50;99.90;;;;;;5053753;28;20036;-78
2022/08/15 03:04:25;;;;;;;11.38;9.20;;;20.40;99.90;;;;;;5037285;28;20048;-78
2022/08/15 03:06:53;;;;;;;11.75;8.30;;;20.40;99.90;;;;;;5053910;28;20123;-78
2022/08/15 03:09:20;;;;;;;11.82;8.73;;;20.40;99.90;;;;;;5053862;28;20049;-79
2022/08/15 03:11:46;;;;;;;13.27;9.18;;;20.40;99.90;;;;;;5053400;28;20083;-79
2022/08/15 03:14:16;;;;;;;12.43;9.50;;;20.40;99.90;;;;;;5053768;28;20342;-78
2022/08/15 03:16:44;;;;;;;12.38;8.55;;;20.30;99.90;;;;;;5036786;28;20036;-78
2022/08/15 03:19:18;;;;;;;11.82;9.02;;;20.30;99.90;;;;;;5053880;28;20503;-78
2022/08/15 03:21:48;;;;;;;10.73;8.50;;;20.30;99.90;;;;;;5053261;28;20115;-78
2022/08/15 03:24:15;;;;;;;11.20;7.72;;;20.30;99.90;;;;;;5053768;28;20036;-78
2022/08/15 03:26:46;;;;;;;10.77;7.72;;;20.30;99.90;;;;;;5053513;28;20120;-78
2022/08/15 03:29:15;;;;;;;9.77;7.35;;;20.30;99.90;;;;;;5053159;28;20127;-78
2022/08/15 03:31:42;;;;;;;11.80;8.13;;;20.20;99.90;;;;;;5053345;28;20459;-78
2022/08/15 03:34:08;;;;;;;9.25;7.03;;;20.20;99.90;;;;;;5053846;28;20055;-78
2022/08/15 03:36:33;;;;;;;10.52;7.93;;;20.10;99.90;;;;;;5053224;28;20122;-78
2022/08/15 03:38:59;;;;;;;10.77;8.15;;;20.10;99.90;;;;;;5071366;28;20116;-78
2022/08/15 03:41:25;;;;;;;10.82;7.80;;;20.00;99.90;;;;;;5071010;28;20051;-78
2022/08/15 03:43:51;;;;;;;9.70;7.57;;;19.90;99.90;;;;;;5053428;28;20149;-78
2022/08/15 03:46:20;;;;;;;12.02;8.13;;;19.90;99.90;;;;;;5053141;28;20040;-78
2022/08/15 03:48:49;;;;;;;10.40;7.90;;;19.80;99.90;;;;;;5053410;28;20407;-78
2022/08/15 03:51:18;;;;;;;8.73;7.47;;;19.70;99.90;;;;;;5053099;28;20400;-78
2022/08/15 03:53:47;;;;;;;12.35;8.75;;;19.50;99.90;;;;;;5053069;28;20503;-78
2022/08/15 03:56:18;;;;;;;11.18;9.18;;;19.50;99.90;;;;;;5052625;28;20491;-78
2022/08/15 03:58:45;;;;;;;12.70;8.50;;;19.50;99.90;;;;;;5053413;28;20048;-79
2022/08/15 04:01:17;;;;;;;10.35;8.25;;;19.50;99.90;;;;;;5055161;28;20037;-79
2022/08/15 04:03:44;;;;;;;11.43;9.13;;;19.50;99.90;;;;;;5037488;28;20036;-79
2022/08/15 04:06:11;;;;;;;14.43;9.23;;;19.50;99.90;;;;;;5052854;28;20047;-79
2022/08/15 04:08:38;;;;;;;10.52;8.30;;;19.40;99.90;;;;;;5052974;28;20043;-79
2022/08/15 04:11:05;;;;;;;11.98;8.40;;;19.40;99.90;;;;;;5052992;28;20426;-79
2022/08/15 04:13:36;;;;;;;11.63;9.40;;;19.30;99.90;;;;;;5052794;28;20051;-79
2022/08/15 04:16:02;;;;;;;13.40;9.85;;;19.40;99.90;;;;;;5054486;28;20438;-79
2022/08/15 04:18:28;;;;;;;13.13;8.40;;;19.30;99.90;;;;;;5054907;28;20674;-80
2022/08/15 04:20:56;;;;;;;14.25;9.05;;;19.40;99.90;;;;;;5039043;28;20044;-78
2022/08/15 04:23:23;;;;;;;13.00;9.00;;;19.40;99.90;;;;;;5074571;28;20036;-78
2022/08/15 04:25:49;;;;;;;12.60;9.40;;;19.40;99.90;;;;;;5055766;28;20551;-77
2022/08/15 04:28:17;;;;;;;12.90;9.13;;;19.30;99.90;;;;;;5055499;28;20056;-79
2022/08/15 04:30:44;;;;;;;11.95;9.18;;;19.40;99.90;;;;;;5072679;28;20079;-79
2022/08/15 04:33:23;;;;;;;13.82;9.48;;;19.40;99.90;;;;;;5054841;28;20056;-80
2022/08/15 04:35:56;;;;;;;12.85;8.95;;;19.40;99.90;;;;;;5038960;28;20048;-78
2022/08/15 04:38:22;;;;;;;15.48;9.93;;;19.40;99.90;;;;;;5054612;28;20498;-79
2022/08/15 04:40:49;;;;;;;14.50;10.18;;;19.40;99.90;;;;;;5053480;28;20040;-79
2022/08/15 04:43:18;;;;;;;16.42;9.93;;;19.40;99.90;;;;;;5054058;28;20052;-79
2022/08/15 04:45:44;;;;;;;12.93;9.07;;;19.50;99.90;;;;;;5055454;28;20063;-79
2022/08/15 04:48:14;;;;;;;13.15;9.52;;;19.50;99.90;;;;;;5072569;28;20049;-79
2022/08/15 04:50:40;;;;;;;12.50;9.23;;;19.50;99.90;;;;;;5072012;28;20041;-79
2022/08/15 04:53:07;;;;;;;12.70;8.38;;;19.60;99.90;;;;;;5038186;28;20048;-80
2022/08/15 04:55:35;;;;;;;11.02;9.07;;;19.60;99.90;;;;;;5054937;28;20471;-80
2022/08/15 04:58:01;;;;;;;12.40;8.73;;;19.60;99.90;;;;;;5053990;28;20094;-79
2022/08/15 05:00:31;;;;;;;11.27;8.55;;;19.60;99.90;;;;;;5054246;28;20556;-80
2022/08/15 05:03:03;;;;;;;13.82;9.15;;;19.70;99.90;;;;;;5054387;28;20045;-79
2022/08/15 05:05:31;;;;;;;13.35;8.73;;;19.70;99.90;;;;;;5037295;28;20040;-80
2022/08/15 05:07:56;;;;;;;11.70;8.40;;;19.80;99.90;;;;;;5054483;28;20048;-79
2022/08/15 05:10:22;;;;;;;11.20;8.82;;;19.80;99.90;;;;;;5041066;28;20051;-79
2022/08/15 05:12:47;;;;;;;11.13;8.50;;;19.90;99.90;;;;;;5075873;28;20550;-80
2022/08/15 05:15:15;;;;;;;12.20;8.23;;;19.90;99.90;;;;;;5040876;28;20032;-79
2022/08/15 05:17:41;;;;;;;13.48;8.18;;;20.00;99.90;;;;;;5057711;28;20052;-79
2022/08/15 05:20:08;;;;;;;11.90;8.18;;;20.00;99.90;;;;;;5041388;28;20040;-79
2022/08/15 05:22:33;;;;;;;10.30;8.05;;;20.10;99.90;;;;;;5057801;28;20404;-79
2022/08/15 05:24:59;;;;;;;15.25;8.48;;;20.10;99.90;;;;;;5041908;28;20037;-79
2022/08/15 05:27:25;;;;;;;13.32;8.02;;;20.20;99.90;;;;;;5066761;28;20078;-74
2022/08/15 05:29:51;;;;;;;11.98;7.93;;;20.20;99.90;;;;;;5082143;28;20040;-74
2022/08/15 05:32:19;;;;;;;10.50;7.90;;;20.10;99.90;;;;;;5081990;28;20400;-81
2022/08/15 05:34:47;;;;;;;10.88;8.30;;;20.20;99.90;;;;;;5062356;28;20036;-82
2022/08/15 05:37:13;;;;;;;15.40;8.68;;;20.30;99.90;;;;;;5055349;28;20147;-83
2022/08/15 05:39:42;;;;;;;12.77;8.38;;;20.30;99.90;;;;;;5055014;28;20048;-83
2022/08/15 05:42:21;;;;;;;12.65;8.05;;;20.40;99.90;;;;;;5055150;28;20055;-83
2022/08/15 05:45:00;;;;;;;12.40;8.57;;;20.60;99.90;;;;;;5055179;28;20036;-84
2022/08/15 05:47:51;;;;;;;14.52;9.10;;;20.60;99.90;;;;;;5055193;28;20048;-83
2022/08/15 05:50:20;;;;;;;11.30;8.35;;;20.70;99.90;;;;;;5041653;28;20057;-83
2022/08/15 05:53:16;;;;;;;11.88;7.70;;;20.70;99.90;;;;;;5055345;28;20435;-83
2022/08/15 05:55:54;;;;;;;13.48;7.90;;;20.70;99.90;;;;;;5055284;28;20036;-83
2022/08/15 05:58:41;;;;;;;10.13;8.20;;;20.70;99.90;;;;;;5054954;28;20102;-83
2022/08/15 06:01:29;;;;;;;10.38;7.85;;;20.80;99.90;;;;;;5054432;28;20068;-83
2022/08/15 06:04:06;;;;;;;11.38;7.93;;;20.70;99.90;;;;;;5054818;28;20050;-83
2022/08/15 06:06:35;;;;;;;10.98;8.18;;;20.70;99.90;;;;;;5054957;28;20082;-83
2022/08/15 06:09:23;;;;;;;12.32;8.60;;;20.80;99.90;;;;;;5054816;28;20044;-84
2022/08/15 06:11:53;;;;;;;11.80;8.63;;;20.70;99.90;;;;;;5037895;28;20032;-83
2022/08/15 06:14:24;;;;;;;11.75;8.60;;;20.70;99.90;;;;;;5054890;28;20040;-84
2022/08/15 06:16:53;;;;;;;15.23;10.00;;;20.80;99.90;;;;;;5055054;28;20040;-80
2022/08/15 06:19:26;;;;;;;12.10;8.95;;;20.80;99.90;;;;;;5055879;28;20514;-80
2022/08/15 06:22:05;;;;;;;11.85;8.55;;;20.90;99.90;;;;;;5056129;28;20048;-81
2022/08/15 06:24:39;;;;;;;11.98;7.90;;;20.90;99.90;;;;;;5055939;28;20040;-81
2022/08/15 06:27:35;;;;;;;11.30;8.02;;;21.00;99.90;;;;;;5055408;28;20032;-80
2022/08/15 06:30:07;;;;;;;11.48;9.48;;;21.00;99.90;;;;;;5054678;28;20396;-80
2022/08/15 06:32:46;;;;;;;11.73;8.48;;;21.10;99.90;;;;;;5055017;28;20049;-81
2022/08/15 06:35:36;;;;;;;15.70;9.38;;;21.20;99.90;;;;;;5055526;28;20044;-81
2022/08/15 06:38:53;;;;;;;10.13;8.50;;;21.30;99.90;;;;;;5055716;28;20082;-82
2022/08/15 06:41:27;;;;;;;15.57;10.77;;;21.40;99.90;;;;;;5001244;28;20048;-80
2022/08/15 06:43:56;;;;;;;14.90;10.27;;;21.50;99.90;;;;;;5055952;28;20048;-81
2022/08/15 06:46:27;;;;;;;16.48;9.70;;;21.50;99.90;;;;;;5053167;28;20093;-81
2022/08/15 06:48:53;;;;;;;14.05;10.85;;;21.70;99.90;;;;;;5036706;28;20078;-81
2022/08/15 06:51:20;;;;;;;17.80;10.85;;;21.80;99.90;;;;;;5053841;28;20044;-81
2022/08/15 06:53:55;;;;;;;14.32;10.57;;;21.90;99.90;;;;;;5051199;28;20094;-80
2022/08/15 06:56:29;;;;;;;16.38;10.20;;;22.00;99.90;;;;;;5056080;28;20092;-81
2022/08/15 06:59:13;;;;;;;15.75;10.00;;;22.00;99.90;;;;;;5055320;28;20045;-81
2022/08/15 07:01:55;;;;;;;17.73;11.30;;;22.10;99.90;;;;;;5053424;28;20040;-80
2022/08/15 07:04:33;;;;;;;19.40;10.77;;;22.30;99.90;;;;;;5045808;28;20041;-81
2022/08/15 07:07:18;;;;;;;14.00;9.45;;;22.40;99.90;;;;;;5039997;28;20536;-80
2022/08/15 07:09:53;;;;;;;15.20;9.73;;;22.60;99.90;;;;;;5034858;28;20052;-81
2022/08/15 07:13:12;;;;;;;16.45;10.98;;;22.90;99.90;;;;;;5044238;28;20050;-77
2022/08/15 07:15:57;;;;;;;15.95;9.75;;;23.20;99.90;;;;;;5069417;28;20032;-80
2022/08/15 07:18:31;;;;;;;12.60;9.15;;;23.50;99.90;;;;;;5040703;28;20040;-80
2022/08/15 07:21:06;;;;;;;16.38;9.60;;;23.80;99.90;;;;;;5047493;28;20048;-79
2022/08/15 07:23:35;;;;;;;16.02;10.00;;;24.00;99.90;;;;;;5033971;28;20522;-78
2022/08/15 07:26:07;;;;;;;16.05;9.55;;;24.40;99.90;;;;;;5050299;28;20438;-78
2022/08/15 07:28:34;;;;;;;13.15;9.45;;;24.90;99.90;;;;;;5044890;28;20045;-78
2022/08/15 07:31:15;;;;;;;17.77;10.73;;;25.40;99.90;;;;;;5050960;28;20512;-78
2022/08/15 07:33:48;;;;;;;12.45;9.45;;;26.00;99.90;;;;;;5042260;28;20489;-78
2022/08/15 07:36:20;;;;;;;13.30;8.95;;;26.50;99.90;;;;;;5033534;28;20068;-78
2022/08/15 07:38:46;;;;;;;13.73;9.73;;;26.90;99.90;;;;;;5046681;28;20040;-78
2022/08/15 07:41:17;;;;;;;12.30;8.82;;;27.00;99.90;;;;;;5035900;28;20119;-78
2022/08/15 07:43:43;;;;;;;;;;;27.20;99.90;;;;;;5046585;28;20040;-78
2022/08/15 07:46:15;;;;;;;15.07;9.07;;;27.40;99.90;;;;;;5049352;28;20353;-79
2022/08/15 07:48:41;;;;;;;14.35;8.75;;;27.70;99.90;;;;;;5035377;28;20043;-81
2022/08/15 07:51:23;;;;;;;12.55;10.20;;;28.00;99.90;;;;;;5053902;28;20044;-79
2022/08/15 07:53:54;;;;;;;15.35;10.68;;;28.20;99.90;;;;;;5040474;28;20052;-76
2022/08/15 07:56:20;;;;;;;13.02;10.50;;;28.50;99.90;;;;;;5047899;28;20113;-76
2022/08/15 07:58:51;;;;;;;14.30;9.85;;;28.60;99.90;;;;;;5050818;28;20064;-76
2022/08/15 08:01:26;;;;;;;17.48;10.68;;;28.80;99.90;;;;;;5044080;28;20040;-77
2022/08/15 08:04:08;;;;;;;13.10;10.20;;;29.10;98.30;;;;;;5051640;28;20086;-76
2022/08/15 08:06:50;;;;;;;12.57;10.55;;;29.20;97.30;;;;;;5049342;28;20040;-78
2022/08/15 08:09:30;;;;;;;12.48;9.73;;;29.30;96.20;;;;;;5049464;28;20041;-85
2022/08/15 08:12:11;;;;;;;13.32;11.05;;;29.30;94.10;;;;;;5049401;28;20045;-85
2022/08/15 08:14:40;;;;;;;14.55;12.07;;;29.60;94.00;;;;;;5049187;28;20530;-87
2022/08/15 08:17:18;;;;;;;14.70;12.10;;;29.70;94.40;;;;;;5044719;28;20129;-87
2022/08/15 08:20:03;;;;;;;17.90;12.82;;;30.00;93.20;;;;;;5032615;28;20575;-88
2022/08/15 08:22:46;;;;;;;15.90;12.77;;;30.00;89.00;;;;;;5033033;28;20041;-83
2022/08/15 08:25:40;;;;;;;13.50;11.00;;;30.00;89.30;;;;;;5035492;28;20402;-84
2022/08/15 08:28:29;;;;;;;14.13;10.70;;;29.90;90.10;;;;;;5035600;28;20437;-85
2022/08/15 08:31:11;;;;;;;15.70;11.82;;;30.10;90.80;;;;;;5044220;28;20044;-83
2022/08/15 08:34:16;;;;;;;18.30;12.27;;;30.30;88.50;;;;;;5045440;28;20262;-82
2022/08/15 08:37:48;;;;;;;14.73;12.68;;;30.40;84.30;;;;;;5016912;28;20045;-83
2022/08/15 08:43:31;;;;;;;12.35;9.27;;;30.40;88.50;;;;;;5035946;28;20048;-83
2022/08/15 08:46:19;;;;;;;12.63;10.98;;;30.60;86.60;;;;;;5055001;28;20045;-84
2022/08/15 08:48:59;;;;;;;14.13;12.63;;;30.70;82.40;;;;;;5038857;28;20052;-83
2022/08/15 08:51:25;;;;;;;11.77;10.55;;;30.90;81.50;;;;;;5038198;28;20048;-84
2022/08/15 08:54:07;;;;;;;15.38;13.25;;;30.80;83.50;;;;;;5037935;28;20399;-84
2022/08/15 08:56:40;;;;;;;16.33;11.70;;;30.50;80.20;;;;;;5038275;28;20037;-84
2022/08/15 08:59:35;;;;;;;16.27;11.65;;;30.30;82.00;;;;;;5037094;28;20226;-83
2022/08/15 09:02:28;;;;;;;13.20;10.10;;;30.00;82.50;;;;;;5029382;28;20523;-84
2022/08/15 09:05:09;;;;;;;15.48;11.95;;;29.70;83.50;;;;;;5036898;28;20511;-85
2022/08/15 09:07:39;;;;;;;17.35;13.18;;;29.30;84.50;;;;;;5044456;28;20488;-84
2022/08/15 09:10:08;;;;;;;15.15;13.55;;;28.90;83.30;;;;;;5049005;28;20041;-86
2022/08/15 09:15:29;;;;;;;18.67;13.00;;;28.30;85.10;;;;;;5050041;28;20522;-84
2022/08/15 09:18:08;;;;;;;17.65;14.23;;;28.00;87.00;;;;;;5046640;28;20048;-83
2022/08/15 09:20:37;;;;;;;19.98;15.75;;;27.80;88.90;;;;;;5057425;28;20122;-83
2022/08/15 09:23:10;;;;;;;29.95;14.85;;;27.50;88.90;;;;;;5057295;28;20440;-84
2022/08/15 09:25:57;;;;;;;22.75;15.75;;;27.20;90.10;;;;;;5056445;28;20518;-83
2022/08/15 09:28:31;;;;;;;22.90;16.05;;;26.90;90.90;;;;;;5054320;28;20059;-83
2022/08/15 09:31:16;;;;;;;21.50;15.65;;;26.60;91.20;;;;;;5042309;28;20087;-85
2022/08/15 09:34:13;;;;;;;21.67;15.02;;;26.40;91.70;;;;;;5036499;28;20045;-84
2022/08/15 09:37:09;;;;;;;19.00;15.50;;;26.10;92.70;;;;;;5047985;28;20084;-83
2022/08/15 09:39:47;;;;;;;24.95;16.08;;;25.90;95.50;;;;;;5048546;28;20041;-85
2022/08/15 09:42:25;;;;;;;21.38;15.68;;;25.70;98.00;;;;;;5027427;28;20499;-85
2022/08/15 09:45:17;;;;;;;23.20;17.55;;;25.40;99.90;;;;;;5021319;28;20080;-85
2022/08/15 09:48:17;;;;;;;26.45;16.92;;;25.10;99.90;;;;;;5031213;28;20044;-85
2022/08/15 09:50:52;;;;;;;20.80;17.17;;;24.60;99.90;;;;;;5040576;28;20075;-85
2022/08/15 09:53:33;;;;;;;23.80;17.63;;;24.30;99.90;;;;;;5025223;28;20052;-85
2022/08/15 09:56:05;;;;;;;23.15;16.30;;;24.00;99.90;;;;;;5025575;28;20041;-86
2022/08/15 09:58:37;;;;;;;29.02;17.73;;;23.90;99.90;;;;;;5036865;28;20090;-85
2022/08/15 10:01:12;;;;;;;24.08;16.77;;;23.70;99.90;;;;;;5025243;28;20081;-85
2022/08/15 10:03:44;;;;;;;26.05;17.88;;;23.70;99.90;;;;;;5043026;28;20491;-85
2022/08/15 10:06:23;;;;;;;24.90;17.98;;;23.70;99.90;;;;;;5018772;28;20040;-85
2022/08/15 10:08:52;;;;;;;27.63;17.65;;;23.60;99.90;;;;;;5031265;28;20151;-84
2022/08/15 10:11:41;;;;;;;24.35;17.02;;;23.50;99.90;;;;;;5061129;28;20257;-82
2022/08/15 10:14:22;;;;;;;28.88;19.33;;;23.50;99.90;;;;;;5032636;28;20061;-80
2022/08/15 10:16:59;;;;;;;27.60;17.80;;;23.40;99.90;;;;;;5047718;28;20118;-85
2022/08/15 10:19:38;;;;;;;26.33;18.27;;;23.50;99.90;;;;;;5034657;28;20049;-85
2022/08/15 10:22:42;;;;;;;30.20;18.20;;;23.50;99.90;;;;;;5018130;28;20036;-85
2022/08/15 10:25:17;;;;;;;29.95;18.02;;;23.60;99.90;;;;;;5018079;28;20533;-85
2022/08/15 10:28:02;;;;;;;27.35;18.30;;;23.70;99.90;;;;;;5018206;28;20044;-85
2022/08/15 10:30:46;;;;;;;28.85;19.23;;;23.80;99.90;;;;;;5017858;28;20041;-85
2022/08/15 10:33:26;;;;;;;28.92;20.20;;;24.00;99.90;;;;;;5034622;28;20049;-86
2022/08/15 10:35:55;;;;;;;27.45;20.08;;;24.20;99.90;;;;;;5034664;28;20633;-85
2022/08/15 10:38:28;;;;;;;32.10;20.90;;;24.40;99.90;;;;;;5017728;28;20033;-86
2022/08/15 10:41:30;;;;;;;27.00;19.52;;;24.50;99.90;;;;;;5033968;28;20044;-85
2022/08/15 10:44:30;;;;;;;27.60;19.23;;;24.70;99.90;;;;;;5034355;28;20068;-86
2022/08/15 10:47:13;;;;;;;29.13;19.83;;;24.90;99.90;;;;;;5034401;28;20037;-86
2022/08/15 10:49:44;;;;;;;28.52;18.48;;;25.00;99.90;;;;;;5033774;28;20405;-86
2022/08/15 10:52:19;;;;;;;;;;;25.00;99.90;;;;;;5034507;28;20069;-86
2022/08/15 10:54:59;;;;;;;26.02;19.52;;;25.00;99.90;;;;;;5034021;28;19970;-86
2022/08/15 10:57:34;;;;;;;27.63;18.50;;;25.00;99.90;;;;;;5050538;28;20049;-86
2022/08/15 11:00:00;;;;;;;28.77;19.48;;;25.00;99.90;;;;;;5033599;28;20045;-86
2022/08/15 11:02:51;;;;;;;25.90;19.02;;;25.00;99.90;;;;;;5033813;28;20045;-86
2022/08/15 11:05:22;;;;;;;28.42;19.83;;;25.00;99.90;;;;;;5033630;28;20052;-86
2022/08/15 11:07:51;;;;;;;25.50;18.48;;;25.10;99.90;;;;;;5033130;28;20124;-86
2022/08/15 11:10:19;;;;;;;26.20;20.15;;;25.30;99.90;;;;;;5035784;28;20051;-86
2022/08/15 11:12:48;;;;;;;25.25;18.10;;;25.60;99.90;;;;;;5031411;28;20480;-86
2022/08/15 11:15:21;;;;;;;26.20;18.92;;;25.80;99.90;;;;;;5017017;28;20098;-86
2022/08/15 11:17:53;;;;;;;26.20;19.17;;;26.10;99.90;;;;;;5033518;28;20099;-86
2022/08/15 11:20:24;;;;;;;33.08;19.80;;;26.30;99.90;;;;;;5033133;28;20045;-86
2022/08/15 11:23:00;;;;;;;26.10;19.48;;;26.40;99.90;;;;;;5033533;28;20033;-86
2022/08/15 11:25:29;;;;;;;24.10;18.05;;;26.40;99.90;;;;;;5033750;28;20041;-86
2022/08/15 11:28:20;;;;;;;22.88;17.98;;;26.50;99.90;;;;;;5033203;28;20044;-87
2022/08/15 11:30:47;;;;;;;26.60;19.90;;;26.60;99.90;;;;;;5033098;28;20044;-86
2022/08/15 11:33:42;;;;;;;25.52;18.92;;;26.80;99.90;;;;;;5016709;28;20415;-87
2022/08/15 11:36:10;;;;;;;25.45;17.45;;;26.80;99.90;;;;;;5048840;28;20053;-87
2022/08/15 11:38:41;;;;;;;23.98;18.73;;;26.90;99.90;;;;;;5049220;28;20037;-86
2022/08/15 11:41:06;;;;;;;23.25;18.13;;;27.10;99.90;;;;;;5048930;28;20041;-86
2022/08/15 11:43:32;;;;;;;24.90;18.05;;;27.20;99.90;;;;;;5053351;28;20039;-86
2022/08/15 11:45:59;;;;;;;22.02;17.52;;;27.40;99.90;;;;;;5052983;28;20036;-85
2022/08/15 11:48:33;;;;;;;21.38;16.67;;;27.60;99.90;;;;;;5052905;28;20052;-86
2022/08/15 11:51:02;;;;;;;21.80;16.42;;;27.80;99.90;;;;;;5052931;28;20055;-85
2022/08/15 11:53:32;;;;;;;22.20;17.67;;;28.00;99.90;;;;;;5053052;28;20403;-84
2022/08/15 11:55:58;;;;;;;24.67;17.33;;;28.20;99.90;;;;;;5053247;28;20043;-84
2022/08/15 11:58:34;;;;;;;24.25;15.77;;;28.20;99.90;;;;;;5052984;28;20043;-85
2022/08/15 12:01:27;;;;;;;20.30;17.00;;;28.40;99.90;;;;;;5053102;28;20502;-83
2022/08/15 12:04:05;;;;;;;15.95;13.68;;;28.50;99.90;;;;;;5053008;28;20041;-85
2022/08/15 12:06:34;;;;;;;21.02;14.32;;;28.60;99.90;;;;;;5053055;28;20048;-86
2022/08/15 12:09:13;;;;;;;18.17;15.10;;;28.60;99.90;;;;;;5053365;28;20446;-84
2022/08/15 12:11:49;;;;;;;16.83;13.20;;;28.60;99.90;;;;;;5036191;28;20052;-85
2022/08/15 12:14:25;;;;;;;16.85;15.07;;;28.60;99.90;;;;;;5053686;28;20036;-85
2022/08/15 12:17:05;;;;;;;19.88;14.02;;;28.60;99.90;;;;;;5052721;28;20051;-86
2022/08/15 12:19:37;;;;;;;33.45;14.63;;;28.60;99.90;;;;;;5056946;28;20045;-86
2022/08/15 12:22:17;;;;;;;17.67;12.30;;;28.60;99.90;;;;;;5057425;28;20099;-85
2022/08/15 12:24:45;;;;;;;12.55;10.18;;;28.50;99.90;;;;;;5056911;28;20037;-87
2022/08/15 12:27:11;;;;;;;15.82;11.20;;;28.40;99.90;;;;;;5056859;28;20036;-84
2022/08/15 12:29:38;;;;;;;18.00;12.18;;;28.20;99.90;;;;;;5056906;28;20457;-86
2022/08/15 12:32:07;;;;;;;14.63;11.13;;;28.20;99.90;;;;;;5056658;28;20083;-86
2022/08/15 12:34:39;;;;;;;15.02;10.93;;;28.20;99.90;;;;;;5056586;28;20434;-86
2022/08/15 12:37:11;;;;;;;15.45;11.68;;;28.30;99.90;;;;;;5056701;28;20047;-87
2022/08/15 12:39:44;;;;;;;10.13;9.07;;;28.40;99.90;;;;;;5056299;28;20079;-87
2022/08/15 12:42:16;;;;;;;13.63;10.20;;;28.50;99.90;;;;;;5056549;28;20044;-86
2022/08/15 12:44:45;;;;;;;12.93;9.77;;;28.50;99.90;;;;;;5056537;28;20127;-84
2022/08/15 12:47:11;;;;;;;12.77;8.23;;;28.60;99.90;;;;;;5056535;28;20067;-85
2022/08/15 12:49:37;;;;;;;10.82;8.00;;;28.60;99.90;;;;;;5074051;28;20048;-85
2022/08/15 12:52:02;;;;;;;11.38;7.60;;;28.50;99.90;;;;;;5056385;28;20052;-84
2022/08/15 12:54:28;;;;;;;9.25;6.70;;;28.40;99.90;;;;;;5039856;28;20407;-84
2022/08/15 12:56:54;;;;;;;12.73;7.43;;;28.30;99.90;;;;;;5056307;28;20044;-85
2022/08/15 12:59:19;;;;;;;9.88;6.60;;;28.30;99.90;;;;;;5039782;28;20052;-84
2022/08/15 13:01:45;;;;;;;7.72;6.35;;;28.30;99.90;;;;;;5056023;28;20471;-84
2022/08/15 13:04:13;;;;;;;10.55;6.80;;;28.30;99.90;;;;;;5055981;28;20048;-85
2022/08/15 13:06:45;;;;;;;8.23;6.63;;;28.20;99.90;;;;;;5056322;28;20047;-85
2022/08/15 13:09:13;;;;;;;9.98;7.72;;;28.20;99.90;;;;;;5055959;28;20039;-84
2022/08/15 13:11:40;;;;;;;7.63;6.78;;;28.10;99.90;;;;;;5055640;28;20047;-86